sensor_id;sensor_type;location;lat;lon;timestamp;P1;durP1;ratioP1;P2;durP2;ratioP2
4519;SDS011;2272;49.226;8.108;2023-08-30T01:29:43;5.80;;;5.50;;
4519;SDS011;2272;49.226;8.108;2023-08-30T01:32:11;6.37;;;6.00;;
4519;SDS011;2272;49.226;8.108;2023-08-30T01:34:39;6.27;;;5.87;;
4519;SDS011;2272;49.226;8.108;2023-08-30T01:37:07;6.90;;;6.30;;
4519;SDS011;2272;49.226;8.108;2023-08-30T01:39:36;14.20;;;6.60;;
4519;SDS011;2272;49.226;8.108;2023-08-30T01:42:06;6.97;;;6.50;;
4519;SDS011;2272;49.226;8.108;2023-08-30T01:44:33;6.30;;;5.90;;
4519;SDS011;2272;49.226;8.108;2023-08-30T01:47:03;7.57;;;6.20;;
4519;SDS011;2272;49.226;8.108;2023-08-30T01:49:31;12.77;;;6.27;;
4519;SDS011;2272;49.226;8.108;2023-08-30T01:51:59;6.30;;;5.83;;
4519;SDS011;2272;49.226;8.108;2023-08-30T01:54:27;7.10;;;6.60;;
4519;SDS011;2272;49.226;8.108;2023-08-30T01:56:55;6.20;;;5.80;;
4519;SDS011;2272;49.226;8.108;2023-08-30T01:59:23;7.50;;;6.37;;
4519;SDS011;2272;49.226;8.108;2023-08-30T02:01:50;6.73;;;6.33;;
4519;SDS011;2272;49.226;8.108;2023-08-30T02:04:19;7.60;;;7.00;;
4519;SDS011;2272;49.226;8.108;2023-08-30T02:06:48;7.37;;;5.70;;
4519;SDS011;2272;49.226;8.108;2023-08-30T02:09:21;5.70;;;5.40;;
4519;SDS011;2272;49.226;8.108;2023-08-30T02:11:52;6.10;;;5.70;;
4519;SDS011;2272;49.226;8.108;2023-08-30T02:14:21;7.20;;;6.60;;
4519;SDS011;2272;49.226;8.108;2023-08-30T02:16:49;5.70;;;5.40;;
4519;SDS011;2272;49.226;8.108;2023-08-30T02:19:16;9.13;;;6.07;;
4519;SDS011;2272;49.226;8.108;2023-08-30T02:21:46;7.43;;;6.83;;
4519;SDS011;2272;49.226;8.108;2023-08-30T02:24:13;5.70;;;5.30;;
4519;SDS011;2272;49.226;8.108;2023-08-30T02:26:40;6.57;;;6.17;;
4519;SDS011;2272;49.226;8.108;2023-08-30T02:29:07;7.37;;;6.77;;
4519;SDS011;2272;49.226;8.108;2023-08-30T02:31:38;9.70;;;7.03;;
4519;SDS011;2272;49.226;8.108;2023-08-30T02:34:04;7.80;;;7.10;;
4519;SDS011;2272;49.226;8.108;2023-08-30T02:36:33;8.30;;;7.70;;
4519;SDS011;2272;49.226;8.108;2023-08-30T02:38:59;8.27;;;7.57;;
4519;SDS011;2272;49.226;8.108;2023-08-30T02:41:26;7.30;;;6.70;;
4519;SDS011;2272;49.226;8.108;2023-08-30T02:43:53;8.27;;;7.47;;
4519;SDS011;2272;49.226;8.108;2023-08-30T02:46:20;7.73;;;7.00;;
4519;SDS011;2272;49.226;8.108;2023-08-30T02:48:47;7.60;;;7.03;;
4519;SDS011;2272;49.226;8.108;2023-08-30T02:51:14;8.93;;;8.23;;
4519;SDS011;2272;49.226;8.108;2023-08-30T02:53:43;8.07;;;7.47;;
4519;SDS011;2272;49.226;8.108;2023-08-30T02:56:10;10.50;;;7.30;;
4519;SDS011;2272;49.226;8.108;2023-08-30T02:58:37;12.60;;;8.27;;
4519;SDS011;2272;49.226;8.108;2023-08-30T03:01:04;8.03;;;7.33;;
4519;SDS011;2272;49.226;8.108;2023-08-30T03:03:31;8.77;;;7.97;;
4519;SDS011;2272;49.226;8.108;2023-08-30T03:05:58;9.27;;;8.47;;
4519;SDS011;2272;49.226;8.108;2023-08-30T03:08:25;9.33;;;8.60;;
4519;SDS011;2272;49.226;8.108;2023-08-30T03:10:53;10.90;;;7.93;;
4519;SDS011;2272;49.226;8.108;2023-08-30T03:13:20;9.70;;;8.47;;
4519;SDS011;2272;49.226;8.108;2023-08-30T03:15:46;9.27;;;8.57;;
4519;SDS011;2272;49.226;8.108;2023-08-30T03:18:13;12.30;;;8.63;;
4519;SDS011;2272;49.226;8.108;2023-08-30T03:20:40;8.30;;;7.70;;
4519;SDS011;2272;49.226;8.108;2023-08-30T03:23:07;9.27;;;8.43;;
4519;SDS011;2272;49.226;8.108;2023-08-30T03:25:33;8.40;;;7.60;;
4519;SDS011;2272;49.226;8.108;2023-08-30T03:28:02;7.80;;;7.30;;
4519;SDS011;2272;49.226;8.108;2023-08-30T03:30:29;10.20;;;9.13;;
4519;SDS011;2272;49.226;8.108;2023-08-30T03:32:56;7.13;;;6.73;;
4519;SDS011;2272;49.226;8.108;2023-08-30T03:35:23;8.00;;;7.30;;
4519;SDS011;2272;49.226;8.108;2023-08-30T03:37:50;8.10;;;7.40;;
4519;SDS011;2272;49.226;8.108;2023-08-30T03:40:16;9.60;;;8.70;;
4519;SDS011;2272;49.226;8.108;2023-08-30T03:42:43;8.13;;;7.43;;
4519;SDS011;2272;49.226;8.108;2023-08-30T03:45:12;9.83;;;6.87;;
4519;SDS011;2272;49.226;8.108;2023-08-30T03:47:38;7.03;;;6.53;;
4519;SDS011;2272;49.226;8.108;2023-08-30T03:50:06;9.50;;;8.47;;
4519;SDS011;2272;49.226;8.108;2023-08-30T03:52:34;8.77;;;7.90;;
4519;SDS011;2272;49.226;8.108;2023-08-30T03:55:01;14.23;;;8.87;;
4519;SDS011;2272;49.226;8.108;2023-08-30T03:57:28;8.13;;;7.43;;
4519;SDS011;2272;49.226;8.108;2023-08-30T03:59:55;7.77;;;7.17;;
4519;SDS011;2272;49.226;8.108;2023-08-30T04:02:23;9.33;;;8.43;;
4519;SDS011;2272;49.226;8.108;2023-08-30T04:04:50;9.20;;;8.40;;
4519;SDS011;2272;49.226;8.108;2023-08-30T04:07:16;8.57;;;7.90;;
4519;SDS011;2272;49.226;8.108;2023-08-30T04:09:43;14.40;;;8.93;;
4519;SDS011;2272;49.226;8.108;2023-08-30T04:12:10;9.63;;;8.73;;
4519;SDS011;2272;49.226;8.108;2023-08-30T04:14:37;8.60;;;8.00;;
4519;SDS011;2272;49.226;8.108;2023-08-30T04:17:03;9.00;;;8.20;;
4519;SDS011;2272;49.226;8.108;2023-08-30T04:19:33;8.87;;;8.17;;
4519;SDS011;2272;49.226;8.108;2023-08-30T04:21:59;13.97;;;9.40;;
4519;SDS011;2272;49.226;8.108;2023-08-30T04:24:26;9.03;;;8.17;;
4519;SDS011;2272;49.226;8.108;2023-08-30T04:26:53;9.53;;;8.30;;
4519;SDS011;2272;49.226;8.108;2023-08-30T04:29:20;8.17;;;7.40;;
4519;SDS011;2272;49.226;8.108;2023-08-30T04:31:47;6.70;;;6.30;;
4519;SDS011;2272;49.226;8.108;2023-08-30T04:34:14;8.23;;;7.40;;
4519;SDS011;2272;49.226;8.108;2023-08-30T04:36:42;9.30;;;8.60;;
4519;SDS011;2272;49.226;8.108;2023-08-30T04:39:09;7.30;;;6.80;;
4519;SDS011;2272;49.226;8.108;2023-08-30T04:41:36;9.93;;;9.07;;
4519;SDS011;2272;49.226;8.108;2023-08-30T04:44:02;8.60;;;7.80;;
4519;SDS011;2272;49.226;8.108;2023-08-30T04:46:29;8.77;;;8.07;;
4519;SDS011;2272;49.226;8.108;2023-08-30T04:48:56;10.23;;;9.23;;
4519;SDS011;2272;49.226;8.108;2023-08-30T04:51:23;9.90;;;9.10;;
4519;SDS011;2272;49.226;8.108;2023-08-30T04:53:54;10.17;;;9.13;;
4519;SDS011;2272;49.226;8.108;2023-08-30T04:56:21;10.73;;;9.83;;
4519;SDS011;2272;49.226;8.108;2023-08-30T04:58:48;7.77;;;7.20;;
4519;SDS011;2272;49.226;8.108;2023-08-30T05:01:15;7.53;;;6.73;;
4519;SDS011;2272;49.226;8.108;2023-08-30T05:03:42;8.23;;;7.53;;
4519;SDS011;2272;49.226;8.108;2023-08-30T05:06:11;8.50;;;7.70;;
4519;SDS011;2272;49.226;8.108;2023-08-30T05:08:41;11.37;;;7.23;;
4519;SDS011;2272;49.226;8.108;2023-08-30T05:11:09;7.30;;;6.80;;
4519;SDS011;2272;49.226;8.108;2023-08-30T05:13:36;9.90;;;8.17;;
4519;SDS011;2272;49.226;8.108;2023-08-30T05:16:03;13.20;;;9.80;;
4519;SDS011;2272;49.226;8.108;2023-08-30T05:18:30;8.67;;;7.73;;
4519;SDS011;2272;49.226;8.108;2023-08-30T05:20:56;8.67;;;8.00;;
4519;SDS011;2272;49.226;8.108;2023-08-30T05:23:23;7.00;;;6.50;;
4519;SDS011;2272;49.226;8.108;2023-08-30T05:25:50;7.03;;;6.50;;
4519;SDS011;2272;49.226;8.108;2023-08-30T05:28:18;9.43;;;7.63;;
4519;SDS011;2272;49.226;8.108;2023-08-30T05:30:45;9.77;;;8.87;;
4519;SDS011;2272;49.226;8.108;2023-08-30T05:33:12;9.70;;;8.70;;
4519;SDS011;2272;49.226;8.108;2023-08-30T05:35:38;12.07;;;8.37;;
4519;SDS011;2272;49.226;8.108;2023-08-30T05:38:05;11.03;;;8.60;;
4519;SDS011;2272;49.226;8.108;2023-08-30T05:40:32;9.23;;;8.40;;
4519;SDS011;2272;49.226;8.108;2023-08-30T05:42:59;9.80;;;7.13;;
4519;SDS011;2272;49.226;8.108;2023-08-30T05:45:27;7.60;;;7.00;;
4519;SDS011;2272;49.226;8.108;2023-08-30T05:47:54;10.13;;;9.27;;
4519;SDS011;2272;49.226;8.108;2023-08-30T05:50:20;8.37;;;7.73;;
4519;SDS011;2272;49.226;8.108;2023-08-30T05:52:47;7.90;;;7.20;;
4519;SDS011;2272;49.226;8.108;2023-08-30T05:55:15;9.00;;;8.10;;
4519;SDS011;2272;49.226;8.108;2023-08-30T05:57:42;7.93;;;7.23;;
4519;SDS011;2272;49.226;8.108;2023-08-30T06:00:09;11.53;;;7.60;;
4519;SDS011;2272;49.226;8.108;2023-08-30T06:02:39;12.83;;;8.40;;
4519;SDS011;2272;49.226;8.108;2023-08-30T06:05:06;7.50;;;6.90;;
4519;SDS011;2272;49.226;8.108;2023-08-30T06:07:34;9.70;;;8.47;;
4519;SDS011;2272;49.226;8.108;2023-08-30T06:10:01;13.00;;;8.77;;
4519;SDS011;2272;49.226;8.108;2023-08-30T06:12:29;8.70;;;7.70;;
4519;SDS011;2272;49.226;8.108;2023-08-30T06:14:56;7.80;;;7.20;;
4519;SDS011;2272;49.226;8.108;2023-08-30T06:17:23;11.87;;;10.67;;
4519;SDS011;2272;49.226;8.108;2023-08-30T06:19:51;10.50;;;9.40;;
4519;SDS011;2272;49.226;8.108;2023-08-30T06:22:18;11.57;;;10.47;;
4519;SDS011;2272;49.226;8.108;2023-08-30T06:24:44;10.90;;;9.80;;
4519;SDS011;2272;49.226;8.108;2023-08-30T06:27:11;13.20;;;10.80;;
4519;SDS011;2272;49.226;8.108;2023-08-30T06:29:38;10.83;;;9.77;;
4519;SDS011;2272;49.226;8.108;2023-08-30T06:32:05;13.20;;;11.90;;
4519;SDS011;2272;49.226;8.108;2023-08-30T06:34:32;11.37;;;10.23;;
4519;SDS011;2272;49.226;8.108;2023-08-30T06:37:00;12.10;;;10.60;;
4519;SDS011;2272;49.226;8.108;2023-08-30T06:39:32;10.20;;;9.20;;
4519;SDS011;2272;49.226;8.108;2023-08-30T06:41:59;16.83;;;12.80;;
4519;SDS011;2272;49.226;8.108;2023-08-30T06:44:26;15.70;;;12.03;;
4519;SDS011;2272;49.226;8.108;2023-08-30T06:46:54;15.83;;;13.27;;
4519;SDS011;2272;49.226;8.108;2023-08-30T06:49:21;16.47;;;12.03;;
4519;SDS011;2272;49.226;8.108;2023-08-30T06:51:48;14.27;;;10.67;;
4519;SDS011;2272;49.226;8.108;2023-08-30T06:54:17;12.50;;;11.30;;
4519;SDS011;2272;49.226;8.108;2023-08-30T06:56:45;14.70;;;12.30;;
4519;SDS011;2272;49.226;8.108;2023-08-30T06:59:23;11.30;;;10.30;;
4519;SDS011;2272;49.226;8.108;2023-08-30T07:01:50;15.30;;;11.43;;
4519;SDS011;2272;49.226;8.108;2023-08-30T07:04:17;12.40;;;11.10;;
4519;SDS011;2272;49.226;8.108;2023-08-30T07:06:43;11.03;;;10.03;;
4519;SDS011;2272;49.226;8.108;2023-08-30T07:09:10;16.37;;;12.07;;
4519;SDS011;2272;49.226;8.108;2023-08-30T07:11:38;14.63;;;12.30;;
4519;SDS011;2272;49.226;8.108;2023-08-30T07:14:05;14.63;;;13.10;;
4519;SDS011;2272;49.226;8.108;2023-08-30T07:16:32;14.83;;;12.50;;
4519;SDS011;2272;49.226;8.108;2023-08-30T07:18:59;29.40;;;13.17;;
4519;SDS011;2272;49.226;8.108;2023-08-30T07:21:27;15.03;;;13.43;;
4519;SDS011;2272;49.226;8.108;2023-08-30T07:23:54;18.40;;;12.70;;
4519;SDS011;2272;49.226;8.108;2023-08-30T07:26:21;14.23;;;12.73;;
4519;SDS011;2272;49.226;8.108;2023-08-30T07:28:49;16.13;;;11.27;;
4519;SDS011;2272;49.226;8.108;2023-08-30T07:31:16;14.60;;;11.60;;
4519;SDS011;2272;49.226;8.108;2023-08-30T07:33:43;11.70;;;10.60;;
4519;SDS011;2272;49.226;8.108;2023-08-30T07:36:10;13.17;;;11.80;;
4519;SDS011;2272;49.226;8.108;2023-08-30T07:38:37;13.93;;;11.40;;
4519;SDS011;2272;49.226;8.108;2023-08-30T07:41:04;11.00;;;9.87;;
4519;SDS011;2272;49.226;8.108;2023-08-30T07:43:31;12.37;;;11.03;;
4519;SDS011;2272;49.226;8.108;2023-08-30T07:45:59;9.80;;;8.90;;
4519;SDS011;2272;49.226;8.108;2023-08-30T07:48:25;13.33;;;11.47;;
4519;SDS011;2272;49.226;8.108;2023-08-30T07:50:52;12.40;;;11.20;;
4519;SDS011;2272;49.226;8.108;2023-08-30T07:53:19;16.60;;;11.10;;
4519;SDS011;2272;49.226;8.108;2023-08-30T07:55:47;12.87;;;11.47;;
4519;SDS011;2272;49.226;8.108;2023-08-30T07:58:14;9.57;;;8.67;;
4519;SDS011;2272;49.226;8.108;2023-08-30T08:00:41;13.20;;;11.87;;
4519;SDS011;2272;49.226;8.108;2023-08-30T08:03:09;11.43;;;10.30;;
4519;SDS011;2272;49.226;8.108;2023-08-30T08:05:36;9.87;;;8.97;;
4519;SDS011;2272;49.226;8.108;2023-08-30T08:08:03;11.00;;;9.87;;
4519;SDS011;2272;49.226;8.108;2023-08-30T08:10:31;10.17;;;9.27;;
4519;SDS011;2272;49.226;8.108;2023-08-30T08:12:58;11.40;;;10.30;;
4519;SDS011;2272;49.226;8.108;2023-08-30T08:15:24;13.67;;;9.90;;
4519;SDS011;2272;49.226;8.108;2023-08-30T08:17:51;10.73;;;9.10;;
4519;SDS011;2272;49.226;8.108;2023-08-30T08:20:19;11.63;;;9.40;;
4519;SDS011;2272;49.226;8.108;2023-08-30T08:22:46;9.93;;;9.10;;
4519;SDS011;2272;49.226;8.108;2023-08-30T08:25:13;16.87;;;8.90;;
4519;SDS011;2272;49.226;8.108;2023-08-30T08:27:41;10.60;;;9.03;;
4519;SDS011;2272;49.226;8.108;2023-08-30T08:30:08;9.70;;;8.17;;
4519;SDS011;2272;49.226;8.108;2023-08-30T08:32:35;10.07;;;9.17;;
4519;SDS011;2272;49.226;8.108;2023-08-30T08:35:02;9.37;;;8.37;;
4519;SDS011;2272;49.226;8.108;2023-08-30T08:37:31;11.00;;;8.37;;
4519;SDS011;2272;49.226;8.108;2023-08-30T08:39:58;11.60;;;8.37;;
4519;SDS011;2272;49.226;8.108;2023-08-30T08:42:28;10.10;;;9.03;;
4519;SDS011;2272;49.226;8.108;2023-08-30T08:44:55;9.07;;;7.70;;
4519;SDS011;2272;49.226;8.108;2023-08-30T08:47:23;10.80;;;7.80;;
4519;SDS011;2272;49.226;8.108;2023-08-30T08:49:50;8.50;;;7.20;;
4519;SDS011;2272;49.226;8.108;2023-08-30T08:52:17;7.80;;;7.10;;
4519;SDS011;2272;49.226;8.108;2023-08-30T08:54:46;7.53;;;6.83;;
4519;SDS011;2272;49.226;8.108;2023-08-30T08:57:12;9.70;;;8.10;;
4519;SDS011;2272;49.226;8.108;2023-08-30T08:59:39;8.50;;;7.70;;
4519;SDS011;2272;49.226;8.108;2023-08-30T09:02:06;8.37;;;7.43;;
4519;SDS011;2272;49.226;8.108;2023-08-30T09:04:36;9.10;;;6.60;;
4519;SDS011;2272;49.226;8.108;2023-08-30T09:07:03;8.77;;;6.83;;
4519;SDS011;2272;49.226;8.108;2023-08-30T09:09:30;6.53;;;5.83;;
4519;SDS011;2272;49.226;8.108;2023-08-30T09:11:58;7.70;;;5.57;;
4519;SDS011;2272;49.226;8.108;2023-08-30T09:14:25;6.00;;;5.40;;
4519;SDS011;2272;49.226;8.108;2023-08-30T09:16:55;10.20;;;5.57;;
4519;SDS011;2272;49.226;8.108;2023-08-30T09:19:23;6.97;;;5.50;;
4519;SDS011;2272;49.226;8.108;2023-08-30T09:21:51;6.20;;;5.20;;
4519;SDS011;2272;49.226;8.108;2023-08-30T09:24:18;5.63;;;5.13;;
4519;SDS011;2272;49.226;8.108;2023-08-30T09:26:47;4.80;;;4.30;;
4519;SDS011;2272;49.226;8.108;2023-08-30T09:29:22;5.33;;;4.90;;
4519;SDS011;2272;49.226;8.108;2023-08-30T09:31:50;4.20;;;3.90;;
4519;SDS011;2272;49.226;8.108;2023-08-30T09:34:21;4.40;;;4.10;;
4519;SDS011;2272;49.226;8.108;2023-08-30T09:36:50;4.70;;;4.30;;
4519;SDS011;2272;49.226;8.108;2023-08-30T09:39:18;5.07;;;4.67;;
4519;SDS011;2272;49.226;8.108;2023-08-30T09:41:48;4.60;;;4.30;;
4519;SDS011;2272;49.226;8.108;2023-08-30T09:44:16;3.40;;;3.20;;
4519;SDS011;2272;49.226;8.108;2023-08-30T09:46:46;4.17;;;3.87;;
4519;SDS011;2272;49.226;8.108;2023-08-30T09:49:18;4.57;;;4.17;;
4519;SDS011;2272;49.226;8.108;2023-08-30T09:51:47;4.27;;;4.03;;
4519;SDS011;2272;49.226;8.108;2023-08-30T09:54:15;4.40;;;3.97;;
4519;SDS011;2272;49.226;8.108;2023-08-30T09:56:44;5.57;;;4.00;;
4519;SDS011;2272;49.226;8.108;2023-08-30T09:59:13;3.37;;;3.17;;
4519;SDS011;2272;49.226;8.108;2023-08-30T10:01:43;2.87;;;2.77;;
4519;SDS011;2272;49.226;8.108;2023-08-30T10:04:10;4.93;;;3.23;;
4519;SDS011;2272;49.226;8.108;2023-08-30T10:06:40;3.53;;;3.33;;
4519;SDS011;2272;49.226;8.108;2023-08-30T10:09:08;4.30;;;2.70;;
4519;SDS011;2272;49.226;8.108;2023-08-30T10:11:36;3.67;;;2.87;;
4519;SDS011;2272;49.226;8.108;2023-08-30T10:14:04;2.73;;;2.63;;
4519;SDS011;2272;49.226;8.108;2023-08-30T10:16:34;2.60;;;2.50;;
4519;SDS011;2272;49.226;8.108;2023-08-30T10:19:09;2.50;;;2.40;;
4519;SDS011;2272;49.226;8.108;2023-08-30T10:21:39;2.80;;;2.60;;
4519;SDS011;2272;49.226;8.108;2023-08-30T10:24:08;2.30;;;2.20;;
4519;SDS011;2272;49.226;8.108;2023-08-30T10:26:37;2.80;;;2.60;;
4519;SDS011;2272;49.226;8.108;2023-08-30T10:29:06;2.77;;;2.23;;
4519;SDS011;2272;49.226;8.108;2023-08-30T10:31:37;2.10;;;2.00;;
4519;SDS011;2272;49.226;8.108;2023-08-30T10:34:12;2.00;;;1.90;;
4519;SDS011;2272;49.226;8.108;2023-08-30T10:36:41;4.17;;;2.20;;
4519;SDS011;2272;49.226;8.108;2023-08-30T10:39:12;2.40;;;2.30;;
4519;SDS011;2272;49.226;8.108;2023-08-30T10:41:54;5.70;;;1.90;;
4519;SDS011;2272;49.226;8.108;2023-08-30T10:44:22;2.10;;;2.00;;
4519;SDS011;2272;49.226;8.108;2023-08-30T10:46:51;4.97;;;1.97;;
4519;SDS011;2272;49.226;8.108;2023-08-30T10:49:20;2.50;;;1.40;;
4519;SDS011;2272;49.226;8.108;2023-08-30T10:51:54;1.77;;;1.67;;
4519;SDS011;2272;49.226;8.108;2023-08-30T10:54:22;3.60;;;2.40;;
4519;SDS011;2272;49.226;8.108;2023-08-30T10:56:54;2.13;;;1.60;;
4519;SDS011;2272;49.226;8.108;2023-08-30T10:59:23;1.70;;;1.57;;
4519;SDS011;2272;49.226;8.108;2023-08-30T11:01:51;1.90;;;1.80;;
4519;SDS011;2272;49.226;8.108;2023-08-30T11:04:19;9.83;;;2.30;;
4519;SDS011;2272;49.226;8.108;2023-08-30T11:06:48;1.23;;;1.23;;
4519;SDS011;2272;49.226;8.108;2023-08-30T11:09:17;3.20;;;1.83;;
4519;SDS011;2272;49.226;8.108;2023-08-30T11:11:45;2.00;;;1.90;;
4519;SDS011;2272;49.226;8.108;2023-08-30T11:14:13;2.90;;;1.90;;
4519;SDS011;2272;49.226;8.108;2023-08-30T11:16:41;1.80;;;1.70;;
4519;SDS011;2272;49.226;8.108;2023-08-30T11:19:09;1.70;;;1.60;;
4519;SDS011;2272;49.226;8.108;2023-08-30T11:21:38;1.43;;;1.43;;
4519;SDS011;2272;49.226;8.108;2023-08-30T11:24:07;1.63;;;1.50;;
4519;SDS011;2272;49.226;8.108;2023-08-30T11:26:34;1.50;;;1.50;;
4519;SDS011;2272;49.226;8.108;2023-08-30T11:29:05;1.97;;;1.87;;
4519;SDS011;2272;49.226;8.108;2023-08-30T11:31:32;1.47;;;1.43;;
4519;SDS011;2272;49.226;8.108;2023-08-30T11:33:59;1.80;;;1.70;;
4519;SDS011;2272;49.226;8.108;2023-08-30T11:36:27;2.37;;;1.80;;
4519;SDS011;2272;49.226;8.108;2023-08-30T11:38:58;2.77;;;2.10;;
4519;SDS011;2272;49.226;8.108;2023-08-30T11:41:26;1.40;;;1.30;;
4519;SDS011;2272;49.226;8.108;2023-08-30T11:43:53;2.03;;;1.93;;
4519;SDS011;2272;49.226;8.108;2023-08-30T11:46:21;2.20;;;2.10;;
4519;SDS011;2272;49.226;8.108;2023-08-30T11:48:49;1.70;;;1.60;;
4519;SDS011;2272;49.226;8.108;2023-08-30T11:51:18;1.73;;;1.53;;
4519;SDS011;2272;49.226;8.108;2023-08-30T11:53:46;2.80;;;1.70;;
4519;SDS011;2272;49.226;8.108;2023-08-30T11:56:14;1.87;;;1.77;;
4519;SDS011;2272;49.226;8.108;2023-08-30T11:58:43;2.20;;;1.90;;
4519;SDS011;2272;49.226;8.108;2023-08-30T12:01:10;1.80;;;1.70;;
4519;SDS011;2272;49.226;8.108;2023-08-30T12:03:39;1.80;;;1.70;;
4519;SDS011;2272;49.226;8.108;2023-08-30T12:06:09;1.80;;;1.70;;
4519;SDS011;2272;49.226;8.108;2023-08-30T12:08:36;1.90;;;1.90;;
4519;SDS011;2272;49.226;8.108;2023-08-30T12:11:03;1.33;;;1.30;;
4519;SDS011;2272;49.226;8.108;2023-08-30T12:13:31;3.07;;;1.80;;
4519;SDS011;2272;49.226;8.108;2023-08-30T12:16:01;1.87;;;1.77;;
4519;SDS011;2272;49.226;8.108;2023-08-30T12:18:29;1.73;;;1.63;;
4519;SDS011;2272;49.226;8.108;2023-08-30T12:20:58;1.67;;;1.57;;
4519;SDS011;2272;49.226;8.108;2023-08-30T12:23:27;2.00;;;1.90;;
4519;SDS011;2272;49.226;8.108;2023-08-30T12:25:58;2.47;;;2.33;;
4519;SDS011;2272;49.226;8.108;2023-08-30T12:28:26;2.37;;;1.90;;
4519;SDS011;2272;49.226;8.108;2023-08-30T12:30:53;1.93;;;1.60;;
4519;SDS011;2272;49.226;8.108;2023-08-30T12:33:21;1.67;;;1.57;;
4519;SDS011;2272;49.226;8.108;2023-08-30T12:35:50;6.23;;;1.80;;
4519;SDS011;2272;49.226;8.108;2023-08-30T12:38:17;2.00;;;1.83;;
4519;SDS011;2272;49.226;8.108;2023-08-30T12:40:44;14.17;;;1.87;;
4519;SDS011;2272;49.226;8.108;2023-08-30T12:43:12;2.30;;;1.73;;
4519;SDS011;2272;49.226;8.108;2023-08-30T12:45:39;1.70;;;1.60;;
4519;SDS011;2272;49.226;8.108;2023-08-30T12:48:06;2.00;;;1.50;;
4519;SDS011;2272;49.226;8.108;2023-08-30T12:50:34;2.20;;;2.03;;
4519;SDS011;2272;49.226;8.108;2023-08-30T12:53:01;1.90;;;1.80;;
4519;SDS011;2272;49.226;8.108;2023-08-30T12:55:29;2.30;;;2.20;;
4519;SDS011;2272;49.226;8.108;2023-08-30T12:57:56;3.40;;;2.00;;
4519;SDS011;2272;49.226;8.108;2023-08-30T13:00:23;5.20;;;1.83;;
4519;SDS011;2272;49.226;8.108;2023-08-30T13:02:51;2.33;;;2.10;;
4519;SDS011;2272;49.226;8.108;2023-08-30T13:05:18;1.67;;;1.60;;
4519;SDS011;2272;49.226;8.108;2023-08-30T13:07:47;2.33;;;1.97;;
4519;SDS011;2272;49.226;8.108;2023-08-30T13:10:15;1.50;;;1.40;;
4519;SDS011;2272;49.226;8.108;2023-08-30T13:12:42;4.53;;;2.23;;
4519;SDS011;2272;49.226;8.108;2023-08-30T13:15:09;2.10;;;1.90;;
4519;SDS011;2272;49.226;8.108;2023-08-30T13:17:36;6.17;;;1.70;;
4519;SDS011;2272;49.226;8.108;2023-08-30T13:20:03;1.90;;;1.80;;
4519;SDS011;2272;49.226;8.108;2023-08-30T13:22:30;2.30;;;2.10;;
4519;SDS011;2272;49.226;8.108;2023-08-30T13:24:58;5.43;;;3.43;;
4519;SDS011;2272;49.226;8.108;2023-08-30T13:27:25;2.57;;;2.37;;
4519;SDS011;2272;49.226;8.108;2023-08-30T13:29:52;2.00;;;1.90;;
4519;SDS011;2272;49.226;8.108;2023-08-30T13:32:19;2.00;;;1.90;;
4519;SDS011;2272;49.226;8.108;2023-08-30T13:34:45;2.10;;;1.90;;
4519;SDS011;2272;49.226;8.108;2023-08-30T13:37:12;2.10;;;2.00;;
4519;SDS011;2272;49.226;8.108;2023-08-30T13:39:39;1.97;;;1.87;;
4519;SDS011;2272;49.226;8.108;2023-08-30T13:42:07;2.40;;;1.90;;
4519;SDS011;2272;49.226;8.108;2023-08-30T13:44:35;3.30;;;1.87;;
4519;SDS011;2272;49.226;8.108;2023-08-30T13:47:02;3.03;;;2.47;;
4519;SDS011;2272;49.226;8.108;2023-08-30T13:49:29;1.77;;;1.67;;
4519;SDS011;2272;49.226;8.108;2023-08-30T13:51:56;5.50;;;2.27;;
4519;SDS011;2272;49.226;8.108;2023-08-30T13:54:23;2.40;;;2.30;;
4519;SDS011;2272;49.226;8.108;2023-08-30T13:56:50;2.27;;;1.83;;
4519;SDS011;2272;49.226;8.108;2023-08-30T13:59:18;2.20;;;2.10;;
4519;SDS011;2272;49.226;8.108;2023-08-30T14:01:45;4.37;;;2.80;;
4519;SDS011;2272;49.226;8.108;2023-08-30T14:04:11;2.10;;;2.00;;
4519;SDS011;2272;49.226;8.108;2023-08-30T14:06:39;2.47;;;2.33;;
4519;SDS011;2272;49.226;8.108;2023-08-30T14:09:05;3.37;;;2.47;;
4519;SDS011;2272;49.226;8.108;2023-08-30T14:11:33;4.40;;;2.20;;
4519;SDS011;2272;49.226;8.108;2023-08-30T14:14:00;2.30;;;1.73;;
4519;SDS011;2272;49.226;8.108;2023-08-30T14:16:29;2.00;;;1.90;;
4519;SDS011;2272;49.226;8.108;2023-08-30T14:18:56;2.60;;;2.40;;
4519;SDS011;2272;49.226;8.108;2023-08-30T14:21:25;2.20;;;2.00;;
4519;SDS011;2272;49.226;8.108;2023-08-30T14:23:52;4.73;;;2.67;;
4519;SDS011;2272;49.226;8.108;2023-08-30T14:26:19;2.33;;;2.13;;
4519;SDS011;2272;49.226;8.108;2023-08-30T14:28:46;7.30;;;2.90;;
4519;SDS011;2272;49.226;8.108;2023-08-30T14:31:13;4.87;;;3.20;;
4519;SDS011;2272;49.226;8.108;2023-08-30T14:33:43;2.47;;;2.37;;
4519;SDS011;2272;49.226;8.108;2023-08-30T14:36:11;2.80;;;2.50;;
4519;SDS011;2272;49.226;8.108;2023-08-30T14:38:38;2.70;;;1.97;;
4519;SDS011;2272;49.226;8.108;2023-08-30T14:41:05;2.57;;;2.30;;
4519;SDS011;2272;49.226;8.108;2023-08-30T14:43:33;2.57;;;2.10;;
4519;SDS011;2272;49.226;8.108;2023-08-30T14:46:04;2.33;;;2.10;;
4519;SDS011;2272;49.226;8.108;2023-08-30T14:48:31;2.60;;;2.40;;
4519;SDS011;2272;49.226;8.108;2023-08-30T14:51:00;3.33;;;2.63;;
4519;SDS011;2272;49.226;8.108;2023-08-30T14:53:28;5.37;;;2.20;;
4519;SDS011;2272;49.226;8.108;2023-08-30T14:55:55;3.30;;;2.70;;
4519;SDS011;2272;49.226;8.108;2023-08-30T14:58:24;3.93;;;2.70;;
4519;SDS011;2272;49.226;8.108;2023-08-30T15:00:51;2.73;;;2.40;;
4519;SDS011;2272;49.226;8.108;2023-08-30T15:03:18;2.43;;;2.30;;
4519;SDS011;2272;49.226;8.108;2023-08-30T15:05:51;3.50;;;2.20;;
4519;SDS011;2272;49.226;8.108;2023-08-30T15:08:21;2.30;;;2.10;;
4519;SDS011;2272;49.226;8.108;2023-08-30T15:10:48;3.57;;;2.40;;
4519;SDS011;2272;49.226;8.108;2023-08-30T15:13:16;5.60;;;2.27;;
4519;SDS011;2272;49.226;8.108;2023-08-30T15:15:43;2.40;;;2.20;;
4519;SDS011;2272;49.226;8.108;2023-08-30T15:18:11;3.23;;;2.73;;
4519;SDS011;2272;49.226;8.108;2023-08-30T15:20:42;2.70;;;2.60;;
4519;SDS011;2272;49.226;8.108;2023-08-30T15:23:16;2.90;;;2.63;;
4519;SDS011;2272;49.226;8.108;2023-08-30T15:25:46;3.00;;;2.70;;
4519;SDS011;2272;49.226;8.108;2023-08-30T15:28:18;4.37;;;2.63;;
4519;SDS011;2272;49.226;8.108;2023-08-30T15:30:50;2.63;;;2.50;;
4519;SDS011;2272;49.226;8.108;2023-08-30T15:33:17;3.27;;;2.97;;
4519;SDS011;2272;49.226;8.108;2023-08-30T15:35:44;5.27;;;2.73;;
4519;SDS011;2272;49.226;8.108;2023-08-30T15:38:16;4.07;;;2.90;;
4519;SDS011;2272;49.226;8.108;2023-08-30T15:40:47;2.60;;;2.40;;
4519;SDS011;2272;49.226;8.108;2023-08-30T15:43:28;2.77;;;2.57;;
4519;SDS011;2272;49.226;8.108;2023-08-30T15:45:56;2.87;;;2.60;;
4519;SDS011;2272;49.226;8.108;2023-08-30T15:48:23;2.43;;;2.23;;
4519;SDS011;2272;49.226;8.108;2023-08-30T15:50:50;3.03;;;2.70;;
4519;SDS011;2272;49.226;8.108;2023-08-30T15:53:17;3.00;;;2.80;;
4519;SDS011;2272;49.226;8.108;2023-08-30T15:55:44;7.47;;;3.00;;
4519;SDS011;2272;49.226;8.108;2023-08-30T15:58:14;2.10;;;2.00;;
4519;SDS011;2272;49.226;8.108;2023-08-30T16:00:42;6.03;;;3.10;;
4519;SDS011;2272;49.226;8.108;2023-08-30T16:03:09;2.80;;;2.60;;
4519;SDS011;2272;49.226;8.108;2023-08-30T16:05:37;2.80;;;2.60;;
4519;SDS011;2272;49.226;8.108;2023-08-30T16:08:06;2.97;;;2.63;;
4519;SDS011;2272;49.226;8.108;2023-08-30T16:10:33;2.77;;;2.57;;
4519;SDS011;2272;49.226;8.108;2023-08-30T16:13:02;4.20;;;3.47;;
4519;SDS011;2272;49.226;8.108;2023-08-30T16:15:29;3.17;;;2.77;;
4519;SDS011;2272;49.226;8.108;2023-08-30T16:17:57;2.70;;;2.50;;
4519;SDS011;2272;49.226;8.108;2023-08-30T16:20:24;4.90;;;3.10;;
4519;SDS011;2272;49.226;8.108;2023-08-30T16:22:51;3.37;;;2.50;;
4519;SDS011;2272;49.226;8.108;2023-08-30T16:25:18;3.07;;;2.83;;
4519;SDS011;2272;49.226;8.108;2023-08-30T16:27:45;3.50;;;3.20;;
4519;SDS011;2272;49.226;8.108;2023-08-30T16:30:15;3.40;;;2.73;;
4519;SDS011;2272;49.226;8.108;2023-08-30T16:32:44;4.23;;;3.20;;
4519;SDS011;2272;49.226;8.108;2023-08-30T16:35:11;5.60;;;3.40;;
4519;SDS011;2272;49.226;8.108;2023-08-30T16:37:40;3.40;;;3.10;;
4519;SDS011;2272;49.226;8.108;2023-08-30T16:40:08;3.43;;;3.13;;
4519;SDS011;2272;49.226;8.108;2023-08-30T16:42:37;3.03;;;2.83;;